Time;durP1;ratioP1;P1;durP2;ratioP2;P2;SDS_P1;SDS_P2;PMS_P1;PMS_P2;Temp;Humidity;BMP_temperature;BMP_pressure;BME280_temperature;BME280_humidity;BME280_pressure;Samples;Min_cycle;Max_cycle;Signal;HPM_P1;HPM_P2
2022/06/11 00:01:05;;;;;;;;;7.00;4.67;;;;;21.30;100.00;101904.34;5055990;28;47593;-70
2022/06/11 00:03:30;;;;;;;;;6.00;5.00;;;;;21.29;100.00;101904.34;5055442;28;45419;-70
2022/06/11 00:05:55;;;;;;;;;7.00;6.00;;;;;21.27;100.00;101903.47;5055866;28;45952;-70
2022/06/11 00:08:21;;;;;;;;;5.00;5.00;;;;;21.26;100.00;101907.09;5055217;28;45370;-70
2022/06/11 00:10:47;;;;;;;;;7.00;5.00;;;;;21.24;100.00;101896.34;5055698;28;46140;-69
2022/06/11 00:13:13;;;;;;;;;8.00;6.00;;;;;21.21;100.00;101907.16;5055283;28;45709;-69
2022/06/11 00:15:39;;;;;;;;;6.00;6.00;;;;;21.19;100.00;101901.78;5055525;28;45563;-69
2022/06/11 00:18:05;;;;;;;;;7.67;6.33;;;;;21.18;100.00;101905.38;5058910;28;45627;-69
2022/06/11 00:20:30;;;;;;;;;8.33;5.00;;;;;21.16;100.00;101900.97;5069797;28;47401;-70
2022/06/11 00:22:56;;;;;;;;;6.00;6.00;;;;;21.13;100.00;101899.19;5055934;28;45587;-70
2022/06/11 00:25:21;;;;;;;;;5.67;4.67;;;;;21.09;100.00;101901.94;5055077;28;61474;-70
2022/06/11 00:27:47;;;;;;;;;6.33;4.00;;;;;21.09;100.00;101904.63;5055448;28;45568;-70
2022/06/11 00:30:14;;;;;;;;;7.00;4.00;;;;;21.06;100.00;101902.91;5056191;28;46610;-69
2022/06/11 00:32:40;;;;;;;;;5.00;5.00;;;;;21.05;100.00;101902.94;5054893;28;45434;-70
2022/06/11 00:35:07;;;;;;;;;7.67;5.00;;;;;21.00;100.00;101892.25;5055063;28;45196;-70
2022/06/11 00:37:32;;;;;;;;;6.00;4.67;;;;;20.98;100.00;101904.81;5055523;28;45529;-69
2022/06/11 00:39:58;;;;;;;;;6.00;5.00;;;;;20.93;100.00;101903.97;5054700;28;57088;-70
2022/06/11 00:42:28;;;;;;;;;6.00;4.00;;;;;20.92;100.00;101899.53;5055161;28;45391;-70
2022/06/11 00:45:33;;;;;;;;;5.33;5.00;;;;;20.89;100.00;101903.16;5055224;28;45263;-69
2022/06/11 00:48:02;;;;;;;;;5.00;5.00;;;;;20.86;100.00;101897.81;4972595;28;45580;-70
2022/06/11 00:50:39;;;;;;;;;4.00;4.00;;;;;20.84;100.00;101893.41;5042050;28;47149;-70
2022/06/11 00:53:12;;;;;;;;;6.00;5.00;;;;;20.83;100.00;101900.56;5054180;28;45474;-70
2022/06/11 00:55:39;;;;;;;;;5.00;5.00;;;;;20.80;100.00;101897.91;5053548;28;45458;-70
2022/06/11 00:58:09;;;;;;;;;5.33;4.00;;;;;20.79;100.00;101901.53;5054241;28;45505;-70
2022/06/11 01:00:41;;;;;;;;;6.00;5.00;;;;;20.77;100.00;101900.63;5053208;28;45924;-70
2022/06/11 01:03:08;;;;;;;;;6.00;4.33;;;;;20.75;100.00;101902.47;5058077;28;45516;-70
2022/06/11 01:05:36;;;;;;;;;4.67;3.67;;;;;20.74;100.00;101908.75;5058284;28;45596;-70
2022/06/11 01:08:32;;;;;;;;;4.67;4.67;;;;;20.70;100.00;101903.44;5057207;28;45538;-70
2022/06/11 01:11:12;;;;;;;;;5.00;4.67;;;;;20.66;100.00;101900.78;5051556;28;46510;-70
2022/06/11 01:13:53;;;;;;;;;4.00;4.00;;;;;20.62;100.00;101898.19;5056581;28;45386;-69
2022/06/11 01:16:40;;;;;;;;;5.00;5.00;;;;;20.58;100.00;101891.97;5058233;28;45552;-70
2022/06/11 01:19:19;;;;;;;;;4.00;4.00;;;;;20.56;100.00;101895.56;5068255;28;45439;-69
2022/06/11 01:22:10;;;;;;;;;5.00;3.00;;;;;20.53;100.00;101892.94;5057973;28;47573;-70
2022/06/11 01:24:55;;;;;;;;;4.00;3.33;;;;;20.50;100.00;101887.59;5026817;28;45496;-70
2022/06/11 01:27:23;;;;;;;;;4.00;4.00;;;;;20.50;100.00;101891.16;5057030;28;45459;-69
2022/06/11 01:29:53;;;;;;;;;6.00;5.00;;;;;20.46;100.00;101888.53;5056358;28;45363;-70
2022/06/11 01:32:40;;;;;;;;;4.00;4.00;;;;;20.44;100.00;101885.84;5056583;28;48172;-70
2022/06/11 01:35:16;;;;;;;;;5.67;4.00;;;;;20.44;100.00;101895.69;5056936;28;45489;-70
2022/06/11 01:37:47;;;;;;;;;3.33;3.33;;;;;20.40;100.00;101892.19;5067074;28;45573;-70
2022/06/11 01:40:17;;;;;;;;;6.00;4.67;;;;;20.37;100.00;101886.84;5057821;28;45570;-70
2022/06/11 01:42:52;;;;;;;;;4.00;4.00;;;;;20.32;100.00;101886.91;5057833;28;46494;-70
2022/06/11 01:45:23;;;;;;;;;4.33;4.33;;;;;20.32;100.00;101888.69;5055987;28;45756;-69
2022/06/11 01:47:50;;;;;;;;;6.00;4.67;;;;;20.32;100.00;101891.38;5057593;28;46145;-70
2022/06/11 01:50:22;;;;;;;;;5.00;4.00;;;;;20.29;100.00;101889.59;5058216;28;45458;-69
2022/06/11 01:52:54;;;;;;;;;8.67;5.00;;;;;20.28;100.00;101895.00;5056428;28;46737;-70
2022/06/11 01:55:39;;;;;;;;;6.00;3.33;;;;;20.26;100.00;101900.38;5057349;28;45203;-69
2022/06/11 01:58:42;;;;;;;;;5.00;5.00;;;;;20.22;100.00;101898.66;5049135;28;45422;-69
2022/06/11 02:01:16;;;;;;;;;5.67;5.00;;;;;20.19;100.00;101900.47;5058104;28;46329;-69
2022/06/11 02:04:23;;;;;;;;;4.67;4.33;;;;;20.14;100.00;101906.78;5056649;28;46052;-69
2022/06/11 02:07:03;;;;;;;;;5.67;4.67;;;;;20.11;100.00;101901.44;5057020;28;45390;-70
2022/06/11 02:09:39;;;;;;;;;7.33;5.00;;;;;20.11;100.00;101900.56;5054630;28;45445;-70
2022/06/11 02:12:17;;;;;;;;;5.00;5.00;;;;;20.09;100.00;101905.97;5056461;28;45441;-70
2022/06/11 02:14:59;;;;;;;;;4.00;4.00;;;;;20.09;100.00;101905.06;5055088;28;46795;-70
2022/06/11 02:17:29;;;;;;;;;4.00;4.00;;;;;20.08;100.00;101905.94;5055919;28;45327;-69
2022/06/11 02:20:03;;;;;;;;;7.33;4.00;;;;;20.07;100.00;101906.84;5056568;28;45584;-70
2022/06/11 02:22:34;;;;;;;;;5.00;5.00;;;;;20.05;100.00;101895.28;5057590;28;45425;-70
2022/06/11 02:25:08;;;;;;;;;5.00;5.00;;;;;20.05;100.00;101901.53;5055430;28;46664;-69
2022/06/11 02:27:35;;;;;;;;;4.00;4.00;;;;;20.03;100.00;101905.16;5055461;28;45453;-69
2022/06/11 02:30:02;;;;;;;;;4.00;4.00;;;;;20.01;100.00;101896.22;5056133;28;45509;-69
2022/06/11 02:32:30;;;;;;;;;8.67;5.00;;;;;20.01;100.00;101904.25;5056431;28;45186;-70
2022/06/11 02:35:00;;;;;;;;;6.33;4.67;;;;;19.99;100.00;101898.03;5055436;28;46682;-70
2022/06/11 02:37:30;;;;;;;;;5.00;5.00;;;;;19.96;100.00;101898.94;5054129;28;45472;-70
2022/06/11 02:40:02;;;;;;;;;6.67;6.67;;;;;19.94;100.00;101908.81;5057398;28;45353;-70
2022/06/11 02:42:28;;;;;;;;;6.00;6.00;;;;;19.91;100.00;101908.81;5056073;28;45454;-70
2022/06/11 02:44:54;;;;;;;;;7.00;6.00;;;;;19.87;100.00;101913.34;5055231;28;45830;-70
2022/06/11 02:47:21;;;;;;;;;5.00;5.00;;;;;19.85;100.00;101920.50;5056191;28;66810;-70
2022/06/11 02:49:46;;;;;;;;;8.67;5.67;;;;;19.82;100.00;101915.19;5055174;28;45508;-70
2022/06/11 02:52:15;;;;;;;;;6.67;4.00;;;;;19.81;100.00;101917.84;5056141;28;58877;-70
2022/06/11 02:54:41;;;;;;;;;7.00;4.00;;;;;19.81;100.00;101923.22;5055502;28;46603;-71
2022/06/11 02:57:14;;;;;;;;;4.67;4.67;;;;;19.77;100.00;101913.44;5056087;28;45539;-69
2022/06/11 02:59:40;;;;;;;;;5.67;5.33;;;;;19.76;100.00;101922.38;5056872;28;45374;-69
2022/06/11 03:02:06;;;;;;;;;5.00;5.00;;;;;19.72;100.00;101924.22;5056330;28;45497;-69
2022/06/11 03:04:31;;;;;;;;;5.67;5.67;;;;;19.72;100.00;101928.69;5056029;28;46564;-69
2022/06/11 03:06:57;;;;;;;;;7.00;5.33;;;;;19.69;100.00;101929.59;5055894;28;45356;-70
2022/06/11 03:09:26;;;;;;;;;6.00;5.00;;;;;19.69;100.00;101940.31;5056766;28;45207;-70
2022/06/11 03:11:51;;;;;;;;;11.33;6.00;;;;;19.68;100.00;101937.66;5056881;28;45573;-70
2022/06/11 03:14:17;;;;;;;;;6.33;5.67;;;;;19.67;100.00;101939.44;5054741;28;46600;-70
2022/06/11 03:16:43;;;;;;;;;7.00;6.33;;;;;19.66;100.00;101932.31;5056272;28;55236;-69
2022/06/11 03:19:10;;;;;;;;;6.67;6.33;;;;;19.64;100.00;101934.09;5055549;28;45367;-70
2022/06/11 03:21:35;;;;;;;;;4.33;2.67;;;;;19.63;100.00;101933.22;5055063;28;45517;-69
2022/06/11 03:24:01;;;;;;;;;7.00;7.00;;;;;19.63;100.00;101933.22;5055816;28;46980;-70
2022/06/11 03:26:27;;;;;;;;;7.00;7.00;;;;;19.62;100.00;101931.44;5055717;28;45252;-70
2022/06/11 03:28:52;;;;;;;;;6.00;5.00;;;;;19.63;100.00;101941.25;5055331;28;46512;-69
2022/06/11 03:31:18;;;;;;;;;6.00;6.00;;;;;19.60;100.00;101935.00;5056370;28;45260;-69
2022/06/11 03:33:44;;;;;;;;;7.00;7.00;;;;;19.61;100.00;101931.47;5055657;28;46862;-70
2022/06/11 03:36:14;;;;;;;;;7.33;7.33;;;;;19.62;100.00;101946.63;5056476;28;45354;-69
2022/06/11 03:38:41;;;;;;;;;7.67;7.67;;;;;19.62;100.00;101947.50;5055042;28;45282;-70
2022/06/11 03:41:07;;;;;;;;;7.67;6.00;;;;;19.62;100.00;101950.19;5056034;28;45636;-69
2022/06/11 03:43:32;;;;;;;;;5.67;5.67;;;;;19.60;100.00;101951.09;5055917;28;46616;-70
2022/06/11 03:45:58;;;;;;;;;5.33;5.33;;;;;19.61;100.00;101952.91;5055469;28;45504;-70
2022/06/11 03:48:25;;;;;;;;;5.33;5.00;;;;;19.62;100.00;101958.22;5056080;28;45728;-69
2022/06/11 03:50:50;;;;;;;;;5.00;5.00;;;;;19.63;100.00;101965.38;5055761;28;45386;-69
2022/06/11 03:53:16;;;;;;;;;7.67;6.67;;;;;19.64;100.00;101968.94;5054670;28;67222;-70
2022/06/11 03:55:42;;;;;;;;;8.33;7.33;;;;;19.66;100.00;101971.63;5054282;28;45697;-70
2022/06/11 03:58:09;;;;;;;;;8.00;6.67;;;;;19.66;100.00;101969.81;5056257;28;45394;-70
2022/06/11 04:03:20;;;;;;;;;5.67;5.33;;;;;19.69;100.00;101977.81;5055448;28;45518;-70
2022/06/11 04:05:47;;;;;;;;;5.33;5.33;;;;;19.67;100.00;101976.97;5055484;28;45402;-70
2022/06/11 04:08:13;;;;;;;;;6.00;6.00;;;;;19.71;100.00;101984.06;5055528;28;45335;-69
2022/06/11 04:10:39;;;;;;;;;7.00;5.33;;;;;19.73;100.00;101984.94;5055420;28;45500;-70
2022/06/11 04:13:05;;;;;;;;;10.33;6.67;;;;;19.71;100.00;101991.19;5055756;28;45564;-70
2022/06/11 04:15:31;;;;;;;;;6.00;6.00;;;;;19.71;100.00;101994.78;5055186;28;45369;-69
2022/06/11 04:17:56;;;;;;;;;5.33;5.33;;;;;19.71;100.00;102000.16;5055899;28;45517;-70
2022/06/11 04:20:21;;;;;;;;;7.00;7.00;;;;;19.70;100.00;101994.78;5054633;28;47996;-69
2022/06/11 04:22:47;;;;;;;;;8.33;7.33;;;;;19.70;100.00;101998.34;5055496;28;46598;-70
2022/06/11 04:25:14;;;;;;;;;6.67;5.67;;;;;19.73;100.00;102005.50;5055524;28;45285;-69
2022/06/11 04:27:40;;;;;;;;;6.33;6.33;;;;;19.74;100.00;102004.59;5055028;28;45521;-70
2022/06/11 04:30:06;;;;;;;;;6.00;6.00;;;;;19.72;100.00;102012.66;5055769;28;45521;-70
2022/06/11 04:32:31;;;;;;;;;6.67;6.00;;;;;19.73;100.00;102013.53;5055092;28;46317;-70
2022/06/11 04:34:57;;;;;;;;;6.00;6.00;;;;;19.73;100.00;102010.84;5054756;28;64972;-69
2022/06/11 04:37:24;;;;;;;;;7.00;7.00;;;;;19.75;100.00;102014.41;5056246;28;45498;-70
2022/06/11 04:39:53;;;;;;;;;6.33;6.33;;;;;19.75;100.00;102017.06;5059155;28;45561;-69
2022/06/11 04:42:19;;;;;;;;;6.67;6.67;;;;;19.75;100.00;102020.66;5058904;28;46441;-69
2022/06/11 04:44:45;;;;;;;;;9.33;8.00;;;;;19.75;100.00;102020.66;5057154;28;45489;-69
2022/06/11 04:47:13;;;;;;;;;9.33;6.67;;;;;19.76;100.00;102021.53;5058770;28;47092;-70
2022/06/11 04:49:39;;;;;;;;;8.00;7.00;;;;;19.77;100.00;102015.28;5054617;28;45461;-69
2022/06/11 04:52:05;;;;;;;;;7.33;6.00;;;;;19.79;100.00;102024.19;5058547;28;46628;-70
2022/06/11 04:54:31;;;;;;;;;6.00;6.00;;;;;19.79;100.00;102021.53;5057193;28;45536;-70
2022/06/11 04:56:56;;;;;;;;;6.00;6.00;;;;;19.81;100.00;102025.06;5058597;28;45507;-70
2022/06/11 04:59:22;;;;;;;;;9.67;8.00;;;;;19.81;100.00;102020.59;5058267;28;45477;-69
2022/06/11 05:01:47;;;;;;;;;7.00;6.67;;;;;19.81;100.00;102022.38;5058012;28;45680;-69
2022/06/11 05:04:13;;;;;;;;;7.33;7.33;;;;;19.81;100.00;102031.31;5065939;28;65702;-70
2022/06/11 05:06:42;;;;;;;;;8.67;6.33;;;;;19.82;100.00;102033.13;5057505;28;45511;-70
2022/06/11 05:09:11;;;;;;;;;8.33;7.00;;;;;19.83;100.00;102032.22;5058453;28;45739;-70
2022/06/11 05:11:37;;;;;;;;;7.00;6.67;;;;;19.81;100.00;102028.63;5057962;28;46585;-70
2022/06/11 05:14:03;;;;;;;;;4.67;4.67;;;;;19.82;100.00;102030.44;5058119;28;45667;-70
2022/06/11 05:16:28;;;;;;;;;8.33;8.00;;;;;19.85;100.00;102030.38;5057538;28;53033;-69
2022/06/11 05:18:54;;;;;;;;;5.67;5.67;;;;;19.85;100.00;102024.16;5059516;28;45587;-69
2022/06/11 05:21:20;;;;;;;;;7.00;7.00;;;;;19.86;100.00;102024.13;5057412;28;68522;-70
2022/06/11 05:23:45;;;;;;;;;7.33;7.33;;;;;19.87;100.00;102025.94;5057987;28;45346;-69
2022/06/11 05:26:16;;;;;;;;;8.00;7.00;;;;;19.89;100.00;102032.16;5057722;28;51295;-70
2022/06/11 05:28:42;;;;;;;;;9.00;7.00;;;;;19.91;100.00;102024.09;5056700;28;45570;-70
2022/06/11 05:31:07;;;;;;;;;5.67;5.67;;;;;19.92;100.00;102033.00;5057918;28;57327;-69
2022/06/11 05:33:33;;;;;;;;;9.00;6.67;;;;;19.92;100.00;102027.66;5056251;28;68049;-69
2022/06/11 05:35:58;;;;;;;;;10.67;7.00;;;;;19.93;100.00;102021.41;5057422;28;55563;-69
2022/06/11 05:38:26;;;;;;;;;5.00;5.00;;;;;19.93;100.00;102019.63;5065037;28;54913;-70
2022/06/11 05:40:52;;;;;;;;;9.00;7.00;;;;;19.97;100.00;102025.81;5056269;28;45498;-69
2022/06/11 05:43:18;;;;;;;;;7.67;7.00;;;;;19.99;100.00;102029.41;5057673;28;45429;-69
2022/06/11 05:45:48;;;;;;;;;7.67;6.00;;;;;20.01;100.00;102020.44;5056576;28;46385;-70
2022/06/11 05:48:15;;;;;;;;;7.67;6.00;;;;;20.02;100.00;102021.31;5056396;28;45442;-70
2022/06/11 05:50:45;;;;;;;;;10.00;8.00;;;;;20.03;100.00;102023.13;5057332;28;46705;-71
2022/06/11 05:53:11;;;;;;;;;9.67;7.67;;;;;20.04;100.00;102028.47;5056845;28;45482;-70
2022/06/11 05:55:40;;;;;;;;;8.00;8.00;;;;;20.09;100.00;102031.09;5057708;28;45443;-70
2022/06/11 05:58:08;;;;;;;;;6.00;6.00;;;;;20.10;100.00;102030.19;5058210;28;45327;-70
2022/06/11 06:00:35;;;;;;;;;5.00;5.00;;;;;20.12;100.00;102031.06;5055791;28;45814;-70
2022/06/11 06:03:00;;;;;;;;;6.00;6.00;;;;;20.15;100.00;102036.41;5055503;28;45491;-70
2022/06/11 06:05:28;;;;;;;;;6.00;6.00;;;;;20.19;100.00;102039.91;5057012;28;57064;-70
2022/06/11 06:07:54;;;;;;;;;4.67;4.67;;;;;20.20;100.00;102031.88;5057245;28;45316;-70
2022/06/11 06:10:20;;;;;;;;;5.67;5.67;;;;;20.23;100.00;102036.31;5056394;28;45685;-69
2022/06/11 06:12:46;;;;;;;;;7.00;5.67;;;;;20.26;100.00;102039.88;5057204;28;45452;-70
2022/06/11 06:15:15;;;;;;;;;6.33;5.33;;;;;20.27;100.00;102036.28;5056335;28;51579;-69
2022/06/11 06:17:40;;;;;;;;;7.67;4.67;;;;;20.27;100.00;102041.63;5057429;28;45293;-70
2022/06/11 06:20:08;;;;;;;;;5.67;4.33;;;;;20.30;100.00;102041.63;5057453;28;45752;-70
2022/06/11 06:22:34;;;;;;;;;4.33;4.33;;;;;20.32;100.00;102034.44;5057194;28;45801;-70
2022/06/11 06:25:00;;;;;;;;;5.00;5.00;;;;;20.36;100.00;102043.34;5068953;28;57834;-70
2022/06/11 06:27:26;;;;;;;;;5.00;5.00;;;;;20.38;100.00;102038.84;5050769;28;45500;-70
2022/06/11 06:29:51;;;;;;;;;7.00;4.00;;;;;20.41;100.00;102039.72;5056451;28;47213;-69
2022/06/11 06:32:17;;;;;;;;;6.33;5.33;;;;;20.46;100.00;102044.16;5062786;28;45356;-70
2022/06/11 06:34:42;;;;;;;;;5.67;4.00;;;;;20.47;100.00;102044.16;5056437;28;45501;-70
2022/06/11 06:37:07;;;;;;;;;9.33;5.67;;;;;20.51;100.00;102042.34;5056321;28;53435;-70
2022/06/11 06:39:33;;;;;;;;;7.00;6.00;;;;;20.50;100.00;102048.59;5053387;28;46349;-70
2022/06/11 06:41:59;;;;;;;;;4.00;4.00;;;;;20.52;100.00;102044.13;5043654;28;45468;-69
2022/06/11 06:44:24;;;;;;;;;5.67;5.67;;;;;20.56;100.00;102044.06;5056812;28;46045;-70
2022/06/11 06:46:50;;;;;;;;;6.33;5.00;;;;;20.65;100.00;102046.63;5057536;28;45534;-69
2022/06/11 06:49:16;;;;;;;;;5.00;4.67;;;;;20.78;100.00;102050.06;5056207;28;46661;-70
2022/06/11 06:51:41;;;;;;;;;6.00;5.00;;;;;20.95;100.00;102046.28;5057117;28;45616;-70
2022/06/11 06:54:07;;;;;;;;;6.00;4.00;;;;;21.10;100.00;102047.00;5057762;28;45292;-70
2022/06/11 06:56:33;;;;;;;;;7.00;5.00;;;;;21.26;100.00;102046.78;5057161;28;45491;-70
2022/06/11 06:59:05;;;;;;;;;5.00;3.00;;;;;21.36;100.00;102045.75;5055929;28;46019;-70
2022/06/11 07:01:31;;;;;;;;;5.00;3.00;;;;;21.47;100.00;102051.00;5057115;28;45312;-70
2022/06/11 07:03:57;;;;;;;;;3.67;3.67;;;;;21.52;100.00;102050.00;5057253;28;45335;-69
2022/06/11 07:06:23;;;;;;;;;6.00;3.00;;;;;21.59;100.00;102053.50;5055850;28;45335;-70
2022/06/11 07:08:50;;;;;;;;;3.33;2.67;;;;;21.66;100.00;102056.03;5054690;28;47604;-70
2022/06/11 07:11:16;;;;;;;;;3.00;3.00;;;;;21.75;100.00;102057.72;5056437;28;45472;-70
2022/06/11 07:13:41;;;;;;;;;5.67;3.33;;;;;21.81;100.00;102054.03;5055925;28;45387;-70
2022/06/11 07:16:06;;;;;;;;;2.00;2.00;;;;;21.87;100.00;102054.81;5056284;28;55741;-70
2022/06/11 07:18:45;;;;;;;;;3.33;2.00;;;;;21.96;100.00;102051.09;5055260;28;65755;-70
2022/06/11 07:21:16;;;;;;;;;6.00;2.67;;;;;22.05;100.00;102052.72;5066819;27;46566;-70
2022/06/11 07:23:49;;;;;;;;;2.00;2.00;;;;;22.14;100.00;102058.88;5054826;28;45317;-70
2022/06/11 07:26:18;;;;;;;;;9.33;5.67;;;;;22.20;100.00;102052.50;5056557;28;45507;-71
2022/06/11 07:28:50;;;;;;;;;3.00;3.00;;;;;22.27;100.00;102053.31;5056089;28;47115;-70
2022/06/11 07:31:15;;;;;;;;;2.00;2.00;;;;;22.36;100.00;102051.31;5056299;28;45494;-70
2022/06/11 07:33:41;;;;;;;;;4.00;2.00;;;;;22.42;100.00;102055.69;5053873;28;57567;-70
2022/06/11 07:36:07;;;;;;;;;3.00;2.00;;;;;22.48;100.00;102051.09;5055832;28;45619;-70
2022/06/11 07:38:32;;;;;;;;;1.67;1.67;;;;;22.54;100.00;102055.47;5056195;28;47016;-70
2022/06/11 07:40:58;;;;;;;;;2.67;2.67;;;;;22.58;100.00;102050.91;5055523;28;63962;-70
2022/06/11 07:43:23;;;;;;;;;2.00;2.00;;;;;22.65;100.00;102050.75;5055488;28;45485;-70
2022/06/11 07:45:49;;;;;;;;;7.33;2.00;;;;;22.73;100.00;102055.97;5056135;28;45478;-70
2022/06/11 07:48:15;;;;;;;;;3.67;2.00;;;;;22.76;100.00;102050.56;5055392;28;46480;-70
2022/06/11 07:50:43;;;;;;;;;3.67;1.67;;;;;22.81;100.00;102050.47;5055408;28;45300;-68
2022/06/11 07:53:09;;;;;;;;;1.00;1.00;;;;;22.84;100.00;102043.19;5054433;28;45535;-71
2022/06/11 07:55:37;;;;;;;;;1.67;1.00;;;;;22.85;100.00;102044.06;5054440;28;45572;-69
2022/06/11 07:58:04;;;;;;;;;2.33;2.00;;;;;22.79;100.00;102041.50;5055532;28;45820;-71
2022/06/11 08:00:35;;;;;;;;;4.00;2.33;;;;;22.71;100.00;102047.06;5066292;28;45457;-70
2022/06/11 08:03:00;;;;;;;;;5.00;2.00;;;;;22.65;100.00;102036.41;5048664;28;46604;-70
2022/06/11 08:05:26;;;;;;;;;2.33;2.33;;;;;22.63;100.00;102047.19;5052782;28;45598;-70
2022/06/11 08:07:52;;;;;;;;;4.00;2.33;;;;;22.59;100.00;102045.50;5042601;28;62876;-72
2022/06/11 08:10:19;;;;;;;;;2.67;2.00;;;;;22.52;100.00;102048.31;5051066;28;45458;-70
2022/06/11 08:12:45;;;;;;;;;3.67;1.00;;;;;22.43;100.00;102046.72;5058812;28;45335;-71
2022/06/11 08:15:11;;;;;;;;;2.33;2.00;;;;;22.36;100.00;102056.69;5057704;28;59470;-73
2022/06/11 08:17:37;;;;;;;;;2.33;2.00;;;;;22.29;100.00;102049.66;5052262;28;45989;-75
2022/06/11 08:20:04;;;;;;;;;5.33;4.00;;;;;22.25;100.00;102050.63;5056835;28;45565;-72
2022/06/11 08:22:30;;;;;;;;;4.00;3.00;;;;;22.29;100.00;102048.75;5055550;28;45552;-74
2022/06/11 08:24:56;;;;;;;;;2.33;2.33;;;;;22.34;100.00;102053.16;5057156;28;45419;-73
2022/06/11 08:27:22;;;;;;;;;5.00;2.33;;;;;22.39;100.00;102043.19;5053641;28;45688;-73
2022/06/11 08:29:47;;;;;;;;;5.67;4.33;;;;;22.41;100.00;102045.84;5056916;28;59602;-73
2022/06/11 08:32:12;;;;;;;;;7.00;3.00;;;;;22.43;100.00;102047.59;5052518;28;45515;-72
2022/06/11 08:34:40;;;;;;;;;6.00;4.00;;;;;22.49;100.00;102051.97;5062777;27;45523;-72
2022/06/11 08:37:05;;;;;;;;;4.67;3.00;;;;;22.51;100.00;102046.56;5072292;27;46466;-73
2022/06/11 08:39:31;;;;;;;;;4.00;2.67;;;;;22.51;100.00;102043.88;5056199;28;65222;-75
2022/06/11 08:41:59;;;;;;;;;8.67;4.33;;;;;22.48;100.00;102039.44;5057931;28;45467;-73
2022/06/11 08:44:25;;;;;;;;;4.00;4.00;;;;;22.53;100.00;102037.56;5057166;28;45730;-72
2022/06/11 08:46:50;;;;;;;;;7.33;7.33;;;;;22.59;100.00;102042.81;5057546;28;60341;-72
2022/06/11 08:49:34;;;;;;;;;4.33;4.00;;;;;;;;5057242;28;65488;-73
2022/06/11 08:52:10;;;;;;;;;5.00;3.00;;;;;22.70;100.00;102032.72;5056517;28;45416;-73
2022/06/11 08:54:37;;;;;;;;;6.00;3.00;;;;;22.68;100.00;102021.06;5057847;28;45911;-74
2022/06/11 08:57:22;;;;;;;;;4.67;2.67;;;;;22.65;100.00;102026.53;5057091;28;45168;-72
2022/06/11 09:00:00;;;;;;;;;5.00;3.00;;;;;22.62;100.00;102031.06;5051899;28;45562;-74
2022/06/11 09:02:28;;;;;;;;;4.67;2.00;;;;;22.57;100.00;102023.09;5053858;28;45417;-72
2022/06/11 09:05:27;;;;;;;;;5.33;4.00;;;;;22.59;100.00;102021.28;5057060;28;45326;-70
2022/06/11 09:07:58;;;;;;;;;3.33;3.33;;;;;22.62;100.00;102014.94;5053837;28;46813;-73
2022/06/11 09:10:24;;;;;;;;;7.00;4.00;;;;;22.64;100.00;102021.19;5053427;28;45461;-72
2022/06/11 09:13:01;;;;;;;;;3.00;3.00;;;;;;;;5060073;28;45493;-72
2022/06/11 09:15:36;;;;;;;;;7.00;4.00;;;;;22.69;100.00;102009.41;5055159;28;45495;-73
2022/06/11 09:18:33;;;;;;;;;5.00;3.00;;;;;22.71;100.00;102010.25;5055891;28;45672;-72
2022/06/11 09:21:18;;;;;;;;;6.33;4.33;;;;;22.72;100.00;102008.44;5056448;28;45420;-73
2022/06/11 09:23:56;;;;;;;;;8.00;4.00;;;;;22.74;100.00;102009.28;5057239;28;45454;-74
2022/06/11 09:26:24;;;;;;;;;6.00;4.00;;;;;22.79;100.00;102012.75;5189724;22;45552;-72
2022/06/11 09:29:05;;;;;;;;;4.67;3.00;;;;;22.82;100.00;102014.53;5055106;28;46639;-72
2022/06/11 09:31:45;;;;;;;;;15.33;7.33;;;;;22.80;100.00;102019.94;5054094;28;45967;-74
2022/06/11 09:34:15;;;;;;;;;9.67;5.67;;;;;22.75;100.00;102013.78;5048203;28;45496;-72
2022/06/11 09:37:04;;;;;;;;;5.67;5.00;;;;;22.73;100.00;102015.59;5057147;28;45484;-73
2022/06/11 09:39:53;;;;;;;;;8.00;4.33;;;;;22.71;100.00;102014.75;5039122;28;47863;-73
2022/06/11 09:42:33;;;;;;;;;6.00;4.33;;;;;22.69;100.00;102012.09;5056667;28;45358;-73
2022/06/11 09:45:21;;;;;;;;;3.00;3.00;;;;;22.67;100.00;102013.03;5057744;28;45354;-72
2022/06/11 09:47:52;;;;;;;;;6.67;5.00;;;;;22.73;100.00;102010.19;5073904;28;45537;-73
2022/06/11 09:50:34;;;;;;;;;4.33;3.67;;;;;22.89;100.00;102019.78;5057777;28;47031;-73
2022/06/11 09:53:28;;;;;;;;;5.00;3.67;;;;;23.15;100.00;102004.84;5056561;28;45532;-73
2022/06/11 09:56:16;;;;;;;;;2.67;2.67;;;;;23.39;100.00;102008.81;5056926;28;45532;-72
2022/06/11 09:59:05;;;;;;;;;11.67;6.00;;;;;23.66;100.00;102010.88;5057747;28;45366;-73
2022/06/11 10:01:37;;;;;;;;;9.33;5.00;;;;;23.98;100.00;102010.03;5057393;28;45744;-73
2022/06/11 10:04:08;;;;;;;;;5.33;5.00;;;;;24.21;100.00;102011.25;5047780;28;45548;-72
2022/06/11 10:06:40;;;;;;;;;7.00;3.00;;;;;24.36;100.00;102012.69;5057519;28;45418;-73
2022/06/11 10:09:22;;;;;;;;;7.00;4.67;;;;;24.47;100.00;102011.44;5062253;28;45454;-73
2022/06/11 10:11:53;;;;;;;;;5.33;4.00;;;;;24.56;99.20;102015.72;5043049;28;46734;-72
2022/06/11 10:14:50;;;;;;;;;4.33;4.33;;;;;24.53;99.05;102011.28;5055940;28;45621;-72
2022/06/11 10:17:45;;;;;;;;;5.33;4.00;;;;;24.43;97.98;102016.97;5055758;28;45469;-71
2022/06/11 10:20:16;;;;;;;;;6.00;5.00;;;;;24.29;97.18;102020.03;5054666;28;45645;-72
2022/06/11 10:22:57;;;;;;;;;5.00;3.00;;;;;24.23;98.97;102017.47;5057358;28;46450;-74
2022/06/11 10:25:28;;;;;;;;;5.67;4.00;;;;;24.29;98.90;102018.22;5056840;28;45544;-72
2022/06/11 10:28:14;;;;;;;;;4.00;3.33;;;;;24.40;97.24;102017.97;5057033;28;45409;-72
2022/06/11 10:30:46;;;;;;;;;4.00;4.00;;;;;24.54;97.16;102013.03;5055780;28;45524;-72
2022/06/11 10:33:20;;;;;;;;;4.00;3.00;;;;;24.75;95.96;102016.94;5055419;28;48526;-72
2022/06/11 10:35:54;;;;;;;;;6.67;4.33;;;;;24.90;95.63;102009.31;5056282;28;45474;-73
2022/06/11 10:38:31;;;;;;;;;4.33;4.00;;;;;24.95;95.15;102002.84;5058952;28;45532;-73
2022/06/11 10:40:58;;;;;;;;;6.00;4.67;;;;;24.95;95.50;101997.44;5057388;28;45280;-72
2022/06/11 10:43:51;;;;;;;;;5.33;4.00;;;;;24.89;95.62;102000.34;5057006;28;45752;-74
2022/06/11 10:46:17;;;;;;;;;4.00;3.00;;;;;24.82;93.86;102014.94;5054705;28;45482;-73
2022/06/11 10:48:43;;;;;;;;;4.00;4.00;;;;;24.76;93.59;102007.00;5055133;28;62383;-73
2022/06/11 10:51:22;;;;;;;;;2.33;2.33;;;;;24.70;90.64;102007.19;5059210;28;60610;-73
2022/06/11 10:54:10;;;;;;;;;1.67;1.67;;;;;24.75;91.52;102002.53;5056186;28;47396;-72
2022/06/11 10:56:51;;;;;;;;;3.00;3.00;;;;;24.87;92.90;101996.78;5057681;28;45388;-72
2022/06/11 10:59:24;;;;;;;;;6.00;3.67;;;;;24.97;90.16;102003.66;5068428;28;45535;-73
2022/06/11 11:01:57;;;;;;;;;4.00;4.00;;;;;25.07;90.02;102002.50;5045414;28;45503;-72
2022/06/11 11:04:22;;;;;;;;;4.33;4.33;;;;;25.14;88.75;102007.69;5054179;28;45591;-72
2022/06/11 11:07:06;;;;;;;;;4.00;2.33;;;;;25.22;86.44;102005.66;5056644;28;45161;-74
2022/06/11 11:09:31;;;;;;;;;3.00;2.00;;;;;25.21;84.96;102006.59;5056662;28;45379;-72
2022/06/11 11:12:00;;;;;;;;;6.00;3.33;;;;;25.15;86.72;102004.97;5054148;28;61922;-72
2022/06/11 11:14:35;;;;;;;;;2.00;2.00;;;;;25.14;87.26;102005.00;5054872;28;47541;-73
2022/06/11 11:17:02;;;;;;;;;3.00;3.00;;;;;25.10;85.35;102006.06;5054932;28;45493;-72
2022/06/11 11:19:30;;;;;;;;;5.00;3.00;;;;;25.10;86.61;101993.41;5055227;28;45379;-72
2022/06/11 11:22:10;;;;;;;;;3.00;3.00;;;;;25.18;86.65;101993.16;5055614;28;45489;-73
2022/06/11 11:24:42;;;;;;;;;3.00;3.00;;;;;25.19;85.41;102001.22;5048982;28;45389;-73
2022/06/11 11:27:15;;;;;;;;;3.00;2.33;;;;;25.17;84.68;101995.00;5055923;28;45540;-72
2022/06/11 11:29:49;;;;;;;;;4.00;3.00;;;;;25.20;83.63;101994.91;5056757;28;45268;-73
2022/06/11 11:32:35;;;;;;;;;4.33;3.00;;;;;25.23;84.68;101999.31;5054542;28;45227;-73
2022/06/11 11:35:41;;;;;;;;;3.67;3.67;;;;;25.16;82.46;101990.53;5056046;28;45821;-73
2022/06/11 11:38:15;;;;;;;;;3.00;3.00;;;;;25.16;84.80;101987.81;5038399;28;45448;-73